createdAt,value
2018-03-20T00:00:16.030Z,81.10
2018-03-20T00:01:18.549Z,81.20
2018-03-20T00:02:21.124Z,81.10
2018-03-20T00:03:24.413Z,81.20
2018-03-20T00:04:27.750Z,81.90
2018-03-20T00:05:30.271Z,81.80
2018-03-20T00:06:33.559Z,82.20
2018-03-20T00:07:36.083Z,82.20
2018-03-20T00:08:38.614Z,81.90
2018-03-20T00:09:41.168Z,81.70
2018-03-20T00:10:43.690Z,81.40
2018-03-20T00:11:46.234Z,81.30
2018-03-20T00:12:48.759Z,81.20
2018-03-20T00:13:51.325Z,81.30
2018-03-20T00:14:53.893Z,81.10
2018-03-20T00:15:56.420Z,81.30
2018-03-20T00:16:58.945Z,81.10
2018-03-20T00:18:01.469Z,81.30
2018-03-20T00:19:04.774Z,81.20
2018-03-20T00:20:07.342Z,81.20
2018-03-20T00:21:09.910Z,81.00
2018-03-20T00:22:12.438Z,80.90
2018-03-20T00:23:14.966Z,80.90
2018-03-20T00:24:17.507Z,81.10
2018-03-20T00:25:20.027Z,81.30
2018-03-20T00:26:22.587Z,81.40
2018-03-20T00:27:25.150Z,81.70
2018-03-20T00:28:27.673Z,81.80
2018-03-20T00:29:30.208Z,81.80
2018-03-20T00:30:32.729Z,82.10
2018-03-20T00:31:35.313Z,82.60
2018-03-20T00:32:37.833Z,81.90
2018-03-20T00:33:40.370Z,81.90
2018-03-20T00:34:42.910Z,81.90
2018-03-20T00:35:45.438Z,82.00
2018-03-20T00:36:47.994Z,82.00
2018-03-20T00:37:51.291Z,82.50
2018-03-20T00:38:53.839Z,82.50
2018-03-20T00:39:56.357Z,82.80
2018-03-20T00:40:58.890Z,82.80
2018-03-20T00:42:01.454Z,82.60
2018-03-20T00:43:03.994Z,82.70
2018-03-20T00:44:06.577Z,82.60
2018-03-20T00:45:09.898Z,82.60
2018-03-20T00:46:12.410Z,82.50
2018-03-20T00:47:14.946Z,82.80
2018-03-20T00:48:17.589Z,82.10
2018-03-20T00:49:20.110Z,82.70
2018-03-20T00:50:22.638Z,83.20
2018-03-20T00:51:25.965Z,82.90
2018-03-20T00:52:29.274Z,82.90
2018-03-20T00:53:31.808Z,82.90
2018-03-20T00:54:34.344Z,82.60
2018-03-20T00:55:36.868Z,82.90
2018-03-20T00:56:39.443Z,83.00
2018-03-20T00:57:41.977Z,83.00
2018-03-20T00:58:45.273Z,83.20
2018-03-20T00:59:48.574Z,83.10
2018-03-20T01:00:51.108Z,83.10
2018-03-20T01:01:54.442Z,83.80
2018-03-20T01:02:56.957Z,83.10
2018-03-20T01:03:59.478Z,83.40
2018-03-20T01:05:02.018Z,83.80
2018-03-20T01:06:04.553Z,83.10
2018-03-20T01:07:07.180Z,83.50
2018-03-20T01:08:09.712Z,82.70
2018-03-20T01:09:12.259Z,82.40
2018-03-20T01:10:15.609Z,83.30
2018-03-20T01:11:18.177Z,82.60
2018-03-20T01:12:20.701Z,82.10
2018-03-20T01:13:23.222Z,82.20
2018-03-20T01:14:25.755Z,82.40
2018-03-20T01:15:28.300Z,82.60
2018-03-20T01:16:30.816Z,82.80
2018-03-20T01:17:33.383Z,83.00
2018-03-20T01:18:35.891Z,83.00
2018-03-20T01:19:38.411Z,82.90
2018-03-20T01:20:40.986Z,82.90
2018-03-20T01:21:43.498Z,83.00
2018-03-20T01:22:46.017Z,83.40
2018-03-20T01:23:48.546Z,83.40
2018-03-20T01:24:51.074Z,83.50
2018-03-20T01:25:54.411Z,83.60
2018-03-20T01:26:56.950Z,83.60
2018-03-20T01:27:59.477Z,83.10
2018-03-20T01:29:02.046Z,83.10
2018-03-20T01:30:04.584Z,83.90
2018-03-20T01:31:07.138Z,83.70
2018-03-20T01:32:09.657Z,83.10
2018-03-20T01:33:12.992Z,82.90
2018-03-20T01:34:15.512Z,82.90
2018-03-20T01:35:18.792Z,83.70
2018-03-20T01:36:22.102Z,83.40
2018-03-20T01:37:24.644Z,83.40
2018-03-20T01:38:27.988Z,83.00
2018-03-20T01:39:30.512Z,83.00
2018-03-20T01:40:33.028Z,83.00
2018-03-20T01:41:35.602Z,82.80
2018-03-20T01:42:38.124Z,82.70
2018-03-20T01:43:40.685Z,82.80
2018-03-20T01:44:43.225Z,83.30
2018-03-20T01:45:46.568Z,83.30
2018-03-20T01:46:49.096Z,83.30
2018-03-20T01:47:51.619Z,82.90
2018-03-20T01:48:54.138Z,82.40
2018-03-20T01:49:56.664Z,81.60
2018-03-20T01:50:59.221Z,80.90
2018-03-20T01:52:01.742Z,80.30
2018-03-20T01:53:16.011Z,80.30
2018-03-20T01:54:18.535Z,80.40
2018-03-20T01:55:21.055Z,80.60
2018-03-20T01:56:23.613Z,80.60
2018-03-20T01:57:26.176Z,80.60
2018-03-20T01:58:28.709Z,81.00
2018-03-20T01:59:31.262Z,81.70
2018-03-20T02:00:33.783Z,82.20
2018-03-20T02:01:36.311Z,82.20
2018-03-20T02:02:38.873Z,82.80
2018-03-20T02:03:41.393Z,82.80
2018-03-20T02:04:43.934Z,83.20
2018-03-20T02:05:46.477Z,83.70
2018-03-20T02:06:48.999Z,84.10
2018-03-20T02:07:51.589Z,84.10
2018-03-20T02:08:54.117Z,84.00
2018-03-20T02:09:56.634Z,84.50
2018-03-20T02:10:59.172Z,85.00
2018-03-20T02:12:02.518Z,85.10
2018-03-20T02:13:05.119Z,85.00
2018-03-20T02:14:07.657Z,85.50
2018-03-20T02:15:10.186Z,85.50
2018-03-20T02:16:12.721Z,85.60
2018-03-20T02:17:16.024Z,85.50
2018-03-20T02:18:18.586Z,85.50
2018-03-20T02:19:21.102Z,85.50
2018-03-20T02:20:23.613Z,84.80
2018-03-20T02:21:26.131Z,83.20
2018-03-20T02:22:28.650Z,82.90
2018-03-20T02:23:31.227Z,81.90
2018-03-20T02:24:33.746Z,82.20
2018-03-20T02:25:36.278Z,81.20
2018-03-20T02:26:38.831Z,80.40
2018-03-20T02:27:41.355Z,80.20
2018-03-20T02:28:43.886Z,80.50
2018-03-20T02:29:46.422Z,80.90
2018-03-20T02:30:48.955Z,81.60
2018-03-20T02:31:52.295Z,82.50
2018-03-20T02:32:54.818Z,82.50
2018-03-20T02:33:57.354Z,82.70
2018-03-20T02:34:59.893Z,83.40
2018-03-20T02:36:02.409Z,83.30
2018-03-20T02:37:05.745Z,83.90
2018-03-20T02:38:08.269Z,83.80
2018-03-20T02:39:11.581Z,84.20
2018-03-20T02:40:14.113Z,84.20
2018-03-20T02:41:17.510Z,84.40
2018-03-20T02:42:20.065Z,84.40
2018-03-20T02:43:23.351Z,84.80
2018-03-20T02:44:26.686Z,84.30
2018-03-20T02:45:29.214Z,84.20
2018-03-20T02:46:34.607Z,83.90
2018-03-20T02:47:37.126Z,83.10
2018-03-20T02:48:39.684Z,83.70
2018-03-20T02:49:42.207Z,83.70
2018-03-20T02:50:44.733Z,83.50
2018-03-20T02:51:47.269Z,83.40
2018-03-20T02:52:49.823Z,82.80
2018-03-20T02:53:53.151Z,82.90
2018-03-20T02:54:55.688Z,82.30
2018-03-20T02:55:58.225Z,82.90
2018-03-20T02:57:00.748Z,82.90
2018-03-20T02:58:03.294Z,83.00
2018-03-20T02:59:05.844Z,82.50
2018-03-20T03:00:09.164Z,82.00
2018-03-20T03:01:11.684Z,81.90
2018-03-20T03:02:14.205Z,82.40
2018-03-20T03:03:16.733Z,82.00
2018-03-20T03:04:19.324Z,81.80
2018-03-20T03:05:21.894Z,80.80
2018-03-20T03:06:24.416Z,80.20
2018-03-20T03:07:26.933Z,79.90
2018-03-20T03:08:29.476Z,80.40
2018-03-20T03:09:32.057Z,80.00
2018-03-20T03:10:35.355Z,80.00
2018-03-20T03:11:37.882Z,79.30
2018-03-20T03:12:41.171Z,79.70
2018-03-20T03:13:43.692Z,79.60
2018-03-20T03:14:46.265Z,78.90
2018-03-20T03:15:48.814Z,78.20
2018-03-20T03:16:51.330Z,78.10
2018-03-20T03:17:54.665Z,79.00
2018-03-20T03:18:57.190Z,78.90
2018-03-20T03:19:59.711Z,78.70
2018-03-20T03:21:02.230Z,79.30
2018-03-20T03:22:04.747Z,80.50
2018-03-20T03:23:07.331Z,80.00
2018-03-20T03:24:10.627Z,79.40
2018-03-20T03:25:13.911Z,78.60
2018-03-20T03:26:16.445Z,78.50
2018-03-20T03:27:19.098Z,76.90
2018-03-20T03:28:21.650Z,77.00
2018-03-20T03:29:24.205Z,77.00
2018-03-20T03:30:26.773Z,76.90
2018-03-20T03:31:29.309Z,77.50
2018-03-20T03:32:32.597Z,75.00
2018-03-20T03:33:35.161Z,75.00
2018-03-20T03:34:38.448Z,75.40
2018-03-20T03:35:40.980Z,75.40
2018-03-20T03:36:43.552Z,77.10
2018-03-20T03:37:46.070Z,78.50
2018-03-20T03:38:48.647Z,80.20
2018-03-20T03:39:51.178Z,80.40
2018-03-20T03:40:54.501Z,80.70
2018-03-20T03:41:57.036Z,80.70
2018-03-20T03:42:59.556Z,81.00
2018-03-20T03:44:02.093Z,80.80
2018-03-20T03:45:04.630Z,77.90
2018-03-20T03:46:07.197Z,78.20
2018-03-20T03:47:09.730Z,79.00
2018-03-20T03:48:12.249Z,78.40
2018-03-20T03:49:14.785Z,77.40
2018-03-20T03:50:18.110Z,76.50
2018-03-20T03:51:20.691Z,76.50
2018-03-20T03:52:26.076Z,77.20
2018-03-20T03:53:29.374Z,77.00
2018-03-20T03:54:31.925Z,77.00
2018-03-20T03:55:35.222Z,76.50
2018-03-20T03:56:37.740Z,76.40
2018-03-20T03:57:40.269Z,76.90
2018-03-20T03:58:42.847Z,77.20
2018-03-20T03:59:45.377Z,77.00
2018-03-20T04:00:48.661Z,74.80
2018-03-20T04:01:51.997Z,75.20
2018-03-20T04:02:54.517Z,75.20
2018-03-20T04:03:57.043Z,73.10
2018-03-20T04:04:59.562Z,72.60
2018-03-20T04:06:02.122Z,72.20
2018-03-20T04:07:04.644Z,73.30
2018-03-20T04:08:07.162Z,75.80
2018-03-20T04:09:09.990Z,77.30
2018-03-20T04:10:12.513Z,79.20
2018-03-20T04:11:15.067Z,77.90
2018-03-20T04:12:17.625Z,75.30
2018-03-20T04:13:20.144Z,78.10
2018-03-20T04:14:22.682Z,79.40
2018-03-20T04:15:25.976Z,80.20
2018-03-20T04:16:28.549Z,80.20
2018-03-20T04:17:31.058Z,80.80
2018-03-20T04:18:34.345Z,77.90
2018-03-20T04:19:37.628Z,76.90
2018-03-20T04:20:40.922Z,75.20
2018-03-20T04:21:43.491Z,75.20
2018-03-20T04:22:46.026Z,74.40
2018-03-20T04:23:48.546Z,73.50
2018-03-20T04:24:51.150Z,72.00
2018-03-20T04:25:53.670Z,72.80
2018-03-20T04:26:56.216Z,72.50
2018-03-20T04:27:58.769Z,73.40
2018-03-20T04:29:02.099Z,73.80
2018-03-20T04:30:04.631Z,73.80
2018-03-20T04:31:07.910Z,72.50
2018-03-20T04:32:11.216Z,72.90
2018-03-20T04:33:13.732Z,72.90
2018-03-20T04:34:16.282Z,72.70
2018-03-20T04:35:18.808Z,71.90
2018-03-20T04:36:21.374Z,71.40
2018-03-20T04:37:23.954Z,71.60
2018-03-20T04:38:26.476Z,71.80
2018-03-20T04:39:28.996Z,70.90
2018-03-20T04:40:31.701Z,71.40
2018-03-20T04:41:34.262Z,74.90
2018-03-20T04:42:36.797Z,74.50
2018-03-20T04:43:39.317Z,73.90
2018-03-20T04:44:41.833Z,74.20
2018-03-20T04:45:44.396Z,75.20
2018-03-20T04:46:46.926Z,74.90
2018-03-20T04:47:50.218Z,75.70
2018-03-20T04:48:52.859Z,75.70
2018-03-20T04:49:56.253Z,72.80
2018-03-20T04:50:59.589Z,74.40
2018-03-20T04:52:02.122Z,74.40
2018-03-20T04:53:04.641Z,75.30
2018-03-20T04:54:07.169Z,75.30
2018-03-20T04:55:09.698Z,74.60
2018-03-20T04:56:12.248Z,75.30
2018-03-20T04:57:14.778Z,77.00
2018-03-20T04:58:17.301Z,78.30
2018-03-20T04:59:20.665Z,78.70
2018-03-20T05:00:23.221Z,78.70
2018-03-20T05:01:25.742Z,80.20
2018-03-20T05:02:28.302Z,80.20
2018-03-20T05:03:30.834Z,80.70
2018-03-20T05:04:33.388Z,80.70
2018-03-20T05:05:35.902Z,80.40
2018-03-20T05:06:38.434Z,80.10
2018-03-20T05:07:41.009Z,80.60
2018-03-20T05:08:43.545Z,79.00
2018-03-20T05:09:46.064Z,77.40
2018-03-20T05:10:49.345Z,78.20
2018-03-20T05:11:51.873Z,78.20
2018-03-20T05:12:54.547Z,79.80
2018-03-20T05:13:57.077Z,80.20
2018-03-20T05:14:59.610Z,80.50
2018-03-20T05:16:02.895Z,80.90
2018-03-20T05:17:06.186Z,79.70
2018-03-20T05:18:08.734Z,79.70
2018-03-20T05:19:14.502Z,80.90
2018-03-20T05:20:22.661Z,80.90
2018-03-20T05:21:30.790Z,81.40
2018-03-20T05:22:39.069Z,81.70
2018-03-20T05:23:47.995Z,82.80
2018-03-20T05:24:51.316Z,83.60
2018-03-20T05:25:53.844Z,83.60
2018-03-20T05:26:57.198Z,84.40
2018-03-20T05:27:59.721Z,84.40
2018-03-20T05:29:02.279Z,83.50
2018-03-20T05:30:04.819Z,83.50
2018-03-20T05:31:08.096Z,86.00
2018-03-20T05:32:10.618Z,85.30
2018-03-20T05:33:13.181Z,85.70
2018-03-20T05:34:15.697Z,86.20
2018-03-20T05:35:19.018Z,87.70
2018-03-20T05:36:21.549Z,87.70
2018-03-20T05:37:24.189Z,88.40
2018-03-20T05:38:26.714Z,89.10
2018-03-20T05:39:29.246Z,89.60
2018-03-20T05:40:31.768Z,90.10
2018-03-20T05:41:34.284Z,90.30
2018-03-20T05:42:37.807Z,90.90
2018-03-20T05:43:40.332Z,90.90
2018-03-20T05:44:42.861Z,91.40
2018-03-20T05:45:45.388Z,91.80
2018-03-20T05:48:35.686Z,92.70
2018-03-20T05:49:43.989Z,93.00
2018-03-20T05:51:07.379Z,93.30
2018-03-20T05:52:09.913Z,93.80
2018-03-20T05:53:12.476Z,94.00
2018-03-20T05:54:14.999Z,94.60
2018-03-20T05:55:17.561Z,94.90
2018-03-20T05:56:20.072Z,95.30
2018-03-20T05:57:22.592Z,95.60
2018-03-20T05:58:25.169Z,95.80
2018-03-20T05:59:27.841Z,96.00
2018-03-20T06:00:30.360Z,96.50
2018-03-20T06:01:32.897Z,96.40
2018-03-20T06:02:36.184Z,96.70
2018-03-20T06:03:39.505Z,96.80
2018-03-20T06:04:42.051Z,96.70
2018-03-20T06:05:44.602Z,96.90
2018-03-20T06:06:47.133Z,97.00
2018-03-20T06:07:49.667Z,97.10
2018-03-20T06:08:52.241Z,97.10
2018-03-20T06:09:54.762Z,97.40
2018-03-20T06:10:58.049Z,97.20
2018-03-20T06:12:00.578Z,97.20
2018-03-20T06:13:03.096Z,97.30
2018-03-20T06:14:05.669Z,97.00
2018-03-20T06:15:08.192Z,97.00
2018-03-20T06:16:11.496Z,97.30
2018-03-20T06:17:14.802Z,97.30
2018-03-20T06:18:17.325Z,97.30
2018-03-20T06:19:19.883Z,97.10
2018-03-20T06:20:22.411Z,97.20
2018-03-20T06:21:24.950Z,96.80
2018-03-20T06:22:27.509Z,96.80
2018-03-20T06:23:30.797Z,96.70
2018-03-20T06:24:33.358Z,96.60
2018-03-20T06:25:36.657Z,96.70
2018-03-20T06:26:39.181Z,96.70
2018-03-20T06:27:41.712Z,96.60
2018-03-20T06:28:44.243Z,96.80
2018-03-20T06:29:47.582Z,96.70
2018-03-20T06:30:50.118Z,96.70
2018-03-20T06:31:52.659Z,96.90
2018-03-20T06:32:55.954Z,96.80
2018-03-20T06:33:58.485Z,96.80
2018-03-20T06:35:01.882Z,96.80
2018-03-20T06:36:05.181Z,97.00
2018-03-20T06:37:07.718Z,97.00
2018-03-20T06:38:10.253Z,97.30
2018-03-20T06:39:12.797Z,97.70
2018-03-20T06:40:15.361Z,97.20
2018-03-20T06:41:17.885Z,97.20
2018-03-20T06:42:20.410Z,97.20
2018-03-20T06:43:22.953Z,97.10
2018-03-20T06:44:25.511Z,96.90
2018-03-20T06:45:28.833Z,96.90
2018-03-20T06:46:31.370Z,96.90
2018-03-20T06:47:33.914Z,96.80
2018-03-20T06:48:37.244Z,96.50
2018-03-20T06:49:39.764Z,96.50
2018-03-20T06:50:43.065Z,96.70
2018-03-20T06:51:45.629Z,96.70
2018-03-20T06:52:48.165Z,96.40
2018-03-20T06:53:50.701Z,96.50
2018-03-20T06:54:53.237Z,96.30
2018-03-20T06:55:55.765Z,96.20
2018-03-20T06:56:58.325Z,96.20
2018-03-20T06:58:00.845Z,96.30
2018-03-20T06:59:03.506Z,96.10
2018-03-20T07:00:06.033Z,96.20
2018-03-20T07:01:08.573Z,96.30
2018-03-20T07:02:11.130Z,96.50
2018-03-20T07:03:13.670Z,96.10
2018-03-20T07:04:16.232Z,96.40
2018-03-20T07:05:18.757Z,96.30
2018-03-20T07:06:21.294Z,96.10
2018-03-20T07:07:23.818Z,96.30
2018-03-20T07:08:27.150Z,95.80
2018-03-20T07:09:29.681Z,95.70
2018-03-20T07:10:32.220Z,95.70
2018-03-20T07:11:34.745Z,95.80
2018-03-20T07:12:37.269Z,95.70
2018-03-20T07:13:40.598Z,95.90
2018-03-20T07:14:43.330Z,95.90
2018-03-20T07:15:45.873Z,96.10
2018-03-20T07:16:48.442Z,96.20
2018-03-20T07:17:50.966Z,96.20
2018-03-20T07:18:53.510Z,96.10
2018-03-20T07:19:56.033Z,96.20
2018-03-20T07:20:58.569Z,96.10
2018-03-20T07:22:01.142Z,96.20
2018-03-20T07:23:04.460Z,96.10
2018-03-20T07:24:07.765Z,96.20
2018-03-20T07:25:10.297Z,96.20
2018-03-20T07:26:12.825Z,96.20
2018-03-20T07:27:15.483Z,96.10
2018-03-20T07:28:18.038Z,96.20
2018-03-20T07:29:21.313Z,96.40
2018-03-20T07:30:24.618Z,96.40
2018-03-20T07:31:27.141Z,96.40
2018-03-20T07:32:29.697Z,96.40
2018-03-20T07:33:32.283Z,96.20
2018-03-20T07:34:35.576Z,96.90
2018-03-20T07:35:38.886Z,97.00
2018-03-20T07:36:41.425Z,97.00
2018-03-20T07:37:44.769Z,97.30
2018-03-20T07:38:47.299Z,97.30
2018-03-20T07:39:49.821Z,97.40
2018-03-20T07:40:52.345Z,97.60
2018-03-20T07:41:54.891Z,97.70
2018-03-20T07:42:57.450Z,97.80
2018-03-20T07:43:59.974Z,97.80
2018-03-20T07:45:02.509Z,97.90
2018-03-20T07:46:05.040Z,98.10
2018-03-20T07:47:08.330Z,98.40
2018-03-20T07:48:10.899Z,98.40
2018-03-20T07:49:13.469Z,98.60
2018-03-20T07:50:16.006Z,98.70
2018-03-20T07:51:18.542Z,98.90
2018-03-20T07:52:21.056Z,99.00
2018-03-20T07:53:24.353Z,99.10
2018-03-20T07:54:26.916Z,99.10
2018-03-20T07:55:29.451Z,99.00
2018-03-20T07:56:31.981Z,99.00
2018-03-20T07:57:34.504Z,99.20
2018-03-20T07:58:37.810Z,99.70
2018-03-20T07:59:40.402Z,99.70
2018-03-20T08:00:42.942Z,99.60
2018-03-20T08:01:45.464Z,99.60
2018-03-20T08:02:48.003Z,99.80
2018-03-20T08:03:50.534Z,99.90
2018-03-20T08:04:53.103Z,99.90
2018-03-20T08:05:55.631Z,99.90
2018-03-20T08:06:58.160Z,99.90
2018-03-20T08:08:00.686Z,99.90
2018-03-20T08:09:03.973Z,99.90
2018-03-20T08:10:06.542Z,99.90
2018-03-20T08:11:09.074Z,99.90
2018-03-20T08:12:11.597Z,99.90
2018-03-20T08:13:14.128Z,99.90
2018-03-20T08:14:16.668Z,99.90
2018-03-20T08:15:19.229Z,99.90
2018-03-20T08:16:21.752Z,99.90
2018-03-20T08:17:24.277Z,99.90
2018-03-20T08:18:26.842Z,99.90
2018-03-20T08:19:29.402Z,99.90
2018-03-20T08:20:31.913Z,99.90
2018-03-20T08:21:34.477Z,99.90
2018-03-20T08:22:37.009Z,99.90
2018-03-20T08:23:39.537Z,99.90
2018-03-20T08:24:42.078Z,99.90
2018-03-20T08:25:44.645Z,99.90
2018-03-20T08:26:47.182Z,99.90
2018-03-20T08:27:50.476Z,99.90
2018-03-20T08:28:53.762Z,99.90
2018-03-20T08:29:57.049Z,99.90
2018-03-20T08:30:59.638Z,99.90
2018-03-20T08:32:02.166Z,99.90
2018-03-20T08:33:05.452Z,99.90
2018-03-20T08:34:08.747Z,99.90
2018-03-20T08:35:11.282Z,99.90
2018-03-20T08:36:13.850Z,99.90
2018-03-20T08:37:16.381Z,99.90
2018-03-20T08:38:18.910Z,99.90
2018-03-20T08:39:22.236Z,99.90
2018-03-20T08:40:24.758Z,99.90
2018-03-20T08:41:28.086Z,99.90
2018-03-20T08:42:30.617Z,99.90
2018-03-20T08:43:33.958Z,99.90
2018-03-20T08:44:36.483Z,99.90
2018-03-20T08:45:39.008Z,99.90
2018-03-20T08:46:41.546Z,99.90
2018-03-20T08:47:44.085Z,99.90
2018-03-20T08:48:46.653Z,99.90
2018-03-20T08:49:49.183Z,99.90
2018-03-20T08:50:52.499Z,99.90
2018-03-20T08:51:55.014Z,99.90
2018-03-20T08:52:57.542Z,99.90
2018-03-20T08:54:00.101Z,99.90
2018-03-20T08:55:02.670Z,99.90
2018-03-20T08:56:05.190Z,99.90
2018-03-20T08:57:08.501Z,99.90
2018-03-20T08:58:11.028Z,99.90
2018-03-20T08:59:13.549Z,99.90
2018-03-20T09:00:16.209Z,99.90
2018-03-20T09:01:18.737Z,99.90
2018-03-20T09:02:21.263Z,99.90
2018-03-20T09:03:23.793Z,99.90
2018-03-20T09:04:26.329Z,99.90
2018-03-20T09:05:28.901Z,99.90
2018-03-20T09:06:31.425Z,99.90
2018-03-20T09:07:33.957Z,99.90
2018-03-20T09:08:36.677Z,99.90
2018-03-20T09:09:39.345Z,99.90
2018-03-20T09:10:41.874Z,99.90
2018-03-20T09:11:44.450Z,99.90
2018-03-20T09:12:46.972Z,99.90
2018-03-20T09:13:49.547Z,99.90
2018-03-20T09:14:52.837Z,99.90
2018-03-20T09:15:56.129Z,99.90
2018-03-20T09:16:59.425Z,99.90
2018-03-20T09:18:02.007Z,99.90
2018-03-20T09:19:04.528Z,99.90
2018-03-20T09:20:07.074Z,99.90
2018-03-20T09:21:09.597Z,99.90
2018-03-20T09:22:12.140Z,99.90
2018-03-20T09:23:15.474Z,99.90
2018-03-20T09:24:17.999Z,99.90
2018-03-20T09:25:21.298Z,99.90
2018-03-20T09:26:23.829Z,99.90
2018-03-20T09:27:26.358Z,99.90
2018-03-20T09:28:28.920Z,99.90
2018-03-20T09:29:31.445Z,99.90
2018-03-20T09:30:33.984Z,99.90
2018-03-20T09:31:36.504Z,99.90
2018-03-20T09:32:39.036Z,99.90
2018-03-20T09:33:42.352Z,99.90
2018-03-20T09:34:44.874Z,99.90
2018-03-20T09:35:47.396Z,99.90
2018-03-20T09:36:49.916Z,99.90
2018-03-20T09:37:53.249Z,99.90
2018-03-20T09:38:55.809Z,99.90
2018-03-20T09:39:58.350Z,99.90
2018-03-20T09:41:00.907Z,99.90
2018-03-20T09:43:13.197Z,99.90
2018-03-20T09:44:16.481Z,99.90
2018-03-20T09:45:19.769Z,99.90
2018-03-20T09:46:23.204Z,99.90
2018-03-20T09:47:25.729Z,99.90
2018-03-20T09:48:29.018Z,99.90
2018-03-20T09:49:32.300Z,99.90
2018-03-20T09:50:34.818Z,99.90
2018-03-20T09:51:37.377Z,99.90
2018-03-20T09:52:39.902Z,99.90
2018-03-20T09:53:42.465Z,99.90
2018-03-20T09:54:45.759Z,99.90
2018-03-20T09:55:48.282Z,99.90
2018-03-20T09:56:50.797Z,99.90
2018-03-20T09:57:53.338Z,99.90
2018-03-20T09:58:56.658Z,99.90
2018-03-20T09:59:59.177Z,99.90
2018-03-20T10:01:01.693Z,99.90
2018-03-20T10:02:04.256Z,99.90
2018-03-20T10:03:06.773Z,99.90
2018-03-20T10:04:10.068Z,99.90
2018-03-20T10:05:12.622Z,99.90
2018-03-20T10:06:15.918Z,99.90
2018-03-20T10:07:19.232Z,99.90
2018-03-20T10:08:21.766Z,99.90
2018-03-20T10:09:24.315Z,99.90
2018-03-20T10:10:26.890Z,99.90
2018-03-20T10:11:29.417Z,99.90
2018-03-20T10:12:31.940Z,99.90
2018-03-20T10:13:35.236Z,99.90
2018-03-20T10:14:37.765Z,99.90
2018-03-20T10:15:40.317Z,99.90
2018-03-20T10:16:42.838Z,99.90
2018-03-20T10:17:45.366Z,99.90
2018-03-20T10:18:47.935Z,99.90
2018-03-20T10:19:50.469Z,99.90
2018-03-20T10:20:52.993Z,99.90
2018-03-20T10:21:56.311Z,99.90
2018-03-20T10:22:58.886Z,99.90
2018-03-20T10:24:01.415Z,99.90
2018-03-20T10:25:03.984Z,99.90
2018-03-20T10:26:07.245Z,99.90
2018-03-20T10:27:10.538Z,99.90
2018-03-20T10:28:13.100Z,99.90
2018-03-20T10:29:15.640Z,99.90
2018-03-20T10:30:18.193Z,99.90
2018-03-20T10:31:20.724Z,99.90
2018-03-20T10:32:23.242Z,99.90
2018-03-20T10:33:25.767Z,99.90
2018-03-20T10:34:28.289Z,99.90
2018-03-20T10:35:31.609Z,99.90
2018-03-20T10:36:34.126Z,99.90
2018-03-20T10:37:36.662Z,99.90
2018-03-20T10:38:39.214Z,99.90
2018-03-20T10:39:41.738Z,99.90
2018-03-20T10:40:45.053Z,99.90
2018-03-20T10:41:47.568Z,99.90
2018-03-20T10:42:50.084Z,99.90
2018-03-20T10:43:52.790Z,99.90
2018-03-20T10:44:55.322Z,99.90
2018-03-20T10:45:57.838Z,99.90
2018-03-20T10:47:00.357Z,99.90
2018-03-20T10:48:02.877Z,99.90
2018-03-20T10:49:05.431Z,99.90
2018-03-20T10:50:07.941Z,99.90
2018-03-20T10:51:10.480Z,99.90
2018-03-20T10:52:13.761Z,99.90
2018-03-20T10:53:16.278Z,99.90
2018-03-20T10:54:18.837Z,99.90
2018-03-20T10:55:21.429Z,99.90
2018-03-20T10:56:23.941Z,99.90
2018-03-20T10:57:27.227Z,99.90
2018-03-20T10:58:30.520Z,99.90
2018-03-20T10:59:33.064Z,99.90
2018-03-20T11:00:38.601Z,99.90
2018-03-20T11:01:46.061Z,99.90
2018-03-20T11:02:52.613Z,99.90
2018-03-20T11:03:55.133Z,99.90
2018-03-20T11:04:57.659Z,99.90
2018-03-20T11:06:00.176Z,99.90
2018-03-20T11:07:02.690Z,99.90
2018-03-20T11:08:05.237Z,99.90
2018-03-20T11:09:07.762Z,99.90
2018-03-20T11:10:10.290Z,99.90
2018-03-20T11:11:12.802Z,99.90
2018-03-20T11:12:15.371Z,99.90
2018-03-20T11:13:17.885Z,99.90
2018-03-20T11:14:20.393Z,99.90
2018-03-20T11:15:22.920Z,99.90
2018-03-20T11:16:25.436Z,99.90
2018-03-20T11:17:27.994Z,99.90
2018-03-20T11:18:30.557Z,99.90
2018-03-20T11:19:33.072Z,99.90
2018-03-20T11:20:35.597Z,99.90
2018-03-20T11:21:38.112Z,99.90
2018-03-20T11:22:40.956Z,99.90
2018-03-20T11:23:43.515Z,99.90
2018-03-20T11:24:46.072Z,99.90
2018-03-20T11:25:48.584Z,99.90
2018-03-20T11:26:51.108Z,99.90
2018-03-20T11:27:53.621Z,99.90
2018-03-20T11:28:56.145Z,99.90
2018-03-20T11:29:58.714Z,99.90
2018-03-20T11:31:01.262Z,99.90
2018-03-20T11:32:03.776Z,99.90
2018-03-20T11:33:06.285Z,99.90
2018-03-20T11:34:08.799Z,99.90
2018-03-20T11:35:11.333Z,99.90
2018-03-20T11:36:13.883Z,99.90
2018-03-20T11:37:16.402Z,99.90
2018-03-20T11:38:18.935Z,99.90
2018-03-20T11:39:21.458Z,99.90
2018-03-20T11:40:24.753Z,99.90
2018-03-20T11:41:27.308Z,99.90
2018-03-20T11:42:29.819Z,99.90
2018-03-20T11:43:32.357Z,99.90
2018-03-20T11:44:35.676Z,99.90
2018-03-20T11:45:38.190Z,99.90
2018-03-20T11:46:41.476Z,99.90
2018-03-20T11:47:44.753Z,99.90
2018-03-20T11:48:47.313Z,99.90
2018-03-20T11:49:49.834Z,99.90
2018-03-20T11:50:52.352Z,99.90
2018-03-20T11:51:54.871Z,99.90
2018-03-20T11:52:57.433Z,99.90
2018-03-20T11:53:59.957Z,99.90
2018-03-20T11:55:03.365Z,99.90
2018-03-20T11:56:05.873Z,99.90
2018-03-20T11:57:08.388Z,99.90
2018-03-20T11:58:11.710Z,99.80
2018-03-20T11:59:14.237Z,99.80
2018-03-20T12:00:16.799Z,99.20
2018-03-20T12:01:20.081Z,99.60
2018-03-20T12:02:23.365Z,99.60
2018-03-20T12:03:26.654Z,99.70
2018-03-20T12:04:29.938Z,99.70
2018-03-20T12:05:33.257Z,99.50
2018-03-20T12:06:35.766Z,99.50
2018-03-20T12:07:50.117Z,99.40
2018-03-20T12:08:53.414Z,98.70
2018-03-20T12:09:56.700Z,98.70
2018-03-20T12:11:00.018Z,98.80
2018-03-20T12:12:02.537Z,98.50
2018-03-20T12:13:05.835Z,98.20
2018-03-20T12:14:08.363Z,98.20
2018-03-20T12:15:10.884Z,98.20
2018-03-20T12:16:13.444Z,97.70
2018-03-20T12:17:15.963Z,97.70
2018-03-20T12:18:18.472Z,97.50
2018-03-20T12:19:20.994Z,97.30
2018-03-20T12:20:23.512Z,97.00
2018-03-20T12:21:26.053Z,97.00
2018-03-20T12:22:29.336Z,96.80
2018-03-20T12:23:32.621Z,96.90
2018-03-20T12:24:35.913Z,96.50
2018-03-20T12:25:38.430Z,96.50
2018-03-20T12:26:40.977Z,96.40
2018-03-20T12:27:43.495Z,96.20
2018-03-20T12:28:46.778Z,95.90
2018-03-20T12:29:49.298Z,95.90
2018-03-20T12:30:51.838Z,96.00
2018-03-20T12:31:54.404Z,95.70
2018-03-20T12:32:56.933Z,95.90
2018-03-20T12:33:59.449Z,95.80
2018-03-20T12:35:01.961Z,95.70
2018-03-20T12:36:04.497Z,96.00
2018-03-20T12:37:07.049Z,95.50
2018-03-20T12:38:09.561Z,95.70
2018-03-20T12:39:12.089Z,95.10
2018-03-20T12:40:14.607Z,95.20
2018-03-20T12:41:17.896Z,95.30
2018-03-20T12:42:21.217Z,95.00
2018-03-20T12:43:23.732Z,95.00
2018-03-20T12:44:26.249Z,94.90
2018-03-20T12:45:28.834Z,95.30
2018-03-20T12:46:31.361Z,95.00
2018-03-20T12:47:33.870Z,94.20
2018-03-20T12:48:36.412Z,94.20
2018-03-20T12:49:38.925Z,94.00
2018-03-20T12:50:41.473Z,94.00
2018-03-20T12:51:43.985Z,94.20
2018-03-20T12:52:46.530Z,93.80
2018-03-20T12:53:49.813Z,93.50
2018-03-20T12:54:53.109Z,93.40
2018-03-20T12:55:56.437Z,93.20
2018-03-20T12:56:58.952Z,93.20
2018-03-20T12:58:02.228Z,93.30
2018-03-20T12:59:05.518Z,93.20
2018-03-20T13:00:08.794Z,92.20
2018-03-20T13:01:11.355Z,92.20
2018-03-20T13:02:13.884Z,92.10
2018-03-20T13:03:16.406Z,91.80
2018-03-20T13:04:19.682Z,90.90
2018-03-20T13:05:22.999Z,91.00
2018-03-20T13:06:25.545Z,91.00
2018-03-20T13:07:28.834Z,90.50
2018-03-20T13:08:31.390Z,90.50
2018-03-20T13:09:34.722Z,90.70
2018-03-20T13:10:37.251Z,90.70
2018-03-20T13:11:39.769Z,90.60
2018-03-20T13:12:43.029Z,90.30
2018-03-20T13:13:45.609Z,90.30
2018-03-20T13:14:48.134Z,90.10
2018-03-20T13:15:50.679Z,90.00
2018-03-20T13:16:53.965Z,88.30
2018-03-20T13:17:57.305Z,86.90
2018-03-20T13:18:59.826Z,86.90
2018-03-20T13:20:03.150Z,89.20
2018-03-20T13:21:05.673Z,89.10
2018-03-20T13:22:08.961Z,87.60
2018-03-20T13:23:12.261Z,87.10
2018-03-20T13:24:14.829Z,87.10
2018-03-20T13:25:17.347Z,86.70
2018-03-20T13:26:19.853Z,87.60
2018-03-20T13:27:22.379Z,85.90
2018-03-20T13:28:24.889Z,85.70
2018-03-20T13:29:27.475Z,85.40
2018-03-20T13:30:29.981Z,84.10
2018-03-20T13:31:32.511Z,82.80